sensor_id;sensor_type;location;lat;lon;timestamp;temperature;humidity
68912;SHT31;55953;51.650;-0.522;2022-08-01T00:01:14;19.97;73.83
68912;SHT31;55953;51.650;-0.522;2022-08-01T00:03:42;19.98;73.78
68912;SHT31;55953;51.650;-0.522;2022-08-01T00:06:09;20.01;73.69
68912;SHT31;55953;51.650;-0.522;2022-08-01T00:08:37;19.98;73.76
68912;SHT31;55953;51.650;-0.522;2022-08-01T00:11:05;19.97;73.89
68912;SHT31;55953;51.650;-0.522;2022-08-01T00:13:33;19.90;74.02
68912;SHT31;55953;51.650;-0.522;2022-08-01T00:16:01;19.83;74.13
68912;SHT31;55953;51.650;-0.522;2022-08-01T00:18:28;19.80;74.22
68912;SHT31;55953;51.650;-0.522;2022-08-01T00:20:56;19.74;74.36
68912;SHT31;55953;51.650;-0.522;2022-08-01T00:23:24;19.71;74.38
68912;SHT31;55953;51.650;-0.522;2022-08-01T00:25:51;19.71;74.34
68912;SHT31;55953;51.650;-0.522;2022-08-01T00:28:20;19.70;74.34
68912;SHT31;55953;51.650;-0.522;2022-08-01T00:30:47;19.70;74.27
68912;SHT31;55953;51.650;-0.522;2022-08-01T00:33:15;19.67;74.41
68912;SHT31;55953;51.650;-0.522;2022-08-01T00:35:43;19.64;74.46
68912;SHT31;55953;51.650;-0.522;2022-08-01T00:38:11;19.62;74.45
68912;SHT31;55953;51.650;-0.522;2022-08-01T00:40:39;19.60;74.35
68912;SHT31;55953;51.650;-0.522;2022-08-01T00:43:07;19.57;74.42
68912;SHT31;55953;51.650;-0.522;2022-08-01T00:45:34;19.53;74.43
68912;SHT31;55953;51.650;-0.522;2022-08-01T00:48:02;19.50;74.43
68912;SHT31;55953;51.650;-0.522;2022-08-01T00:50:30;19.48;74.49
68912;SHT31;55953;51.650;-0.522;2022-08-01T00:52:59;19.40;74.65
68912;SHT31;55953;51.650;-0.522;2022-08-01T00:55:27;19.35;74.83
68912;SHT31;55953;51.650;-0.522;2022-08-01T00:57:56;19.28;74.88
68912;SHT31;55953;51.650;-0.522;2022-08-01T01:00:33;19.27;74.93
68912;SHT31;55953;51.650;-0.522;2022-08-01T01:03:20;19.26;75.04
68912;SHT31;55953;51.650;-0.522;2022-08-01T01:06:13;19.27;75.05
68912;SHT31;55953;51.650;-0.522;2022-08-01T01:12:15;19.16;75.42
68912;SHT31;55953;51.650;-0.522;2022-08-01T01:20:30;19.14;75.42
68912;SHT31;55953;51.650;-0.522;2022-08-01T01:23:16;19.13;75.50
68912;SHT31;55953;51.650;-0.522;2022-08-01T01:29:30;19.12;75.48
68912;SHT31;55953;51.650;-0.522;2022-08-01T01:32:33;19.13;75.53
68912;SHT31;55953;51.650;-0.522;2022-08-01T01:35:09;19.11;75.64
68912;SHT31;55953;51.650;-0.522;2022-08-01T01:38:00;19.05;75.72
68912;SHT31;55953;51.650;-0.522;2022-08-01T01:40:34;19.05;75.84
68912;SHT31;55953;51.650;-0.522;2022-08-01T01:43:04;19.07;75.75
68912;SHT31;55953;51.650;-0.522;2022-08-01T01:45:38;19.07;75.81
68912;SHT31;55953;51.650;-0.522;2022-08-01T01:48:09;19.08;75.71
68912;SHT31;55953;51.650;-0.522;2022-08-01T01:50:40;19.09;75.77
68912;SHT31;55953;51.650;-0.522;2022-08-01T01:53:10;19.08;75.72
68912;SHT31;55953;51.650;-0.522;2022-08-01T01:55:43;19.07;75.70
68912;SHT31;55953;51.650;-0.522;2022-08-01T01:58:16;19.02;75.79
68912;SHT31;55953;51.650;-0.522;2022-08-01T02:00:47;19.01;75.71
68912;SHT31;55953;51.650;-0.522;2022-08-01T02:03:18;19.03;75.76
68912;SHT31;55953;51.650;-0.522;2022-08-01T02:05:48;19.00;75.74
68912;SHT31;55953;51.650;-0.522;2022-08-01T02:08:19;18.99;75.77
68912;SHT31;55953;51.650;-0.522;2022-08-01T02:10:51;18.96;75.78
68912;SHT31;55953;51.650;-0.522;2022-08-01T02:13:39;18.95;75.73
68912;SHT31;55953;51.650;-0.522;2022-08-01T02:16:09;18.95;75.67
68912;SHT31;55953;51.650;-0.522;2022-08-01T02:18:38;18.91;75.74
68912;SHT31;55953;51.650;-0.522;2022-08-01T02:21:08;18.90;75.78
68912;SHT31;55953;51.650;-0.522;2022-08-01T02:23:40;18.87;75.88
68912;SHT31;55953;51.650;-0.522;2022-08-01T02:26:13;18.86;75.82
68912;SHT31;55953;51.650;-0.522;2022-08-01T02:28:48;18.89;75.72
68912;SHT31;55953;51.650;-0.522;2022-08-01T02:31:30;18.93;75.71
68912;SHT31;55953;51.650;-0.522;2022-08-01T02:34:06;18.93;75.51
68912;SHT31;55953;51.650;-0.522;2022-08-01T02:36:39;18.95;75.48
68912;SHT31;55953;51.650;-0.522;2022-08-01T02:39:08;18.93;75.50
68912;SHT31;55953;51.650;-0.522;2022-08-01T02:41:41;18.94;75.43
68912;SHT31;55953;51.650;-0.522;2022-08-01T02:44:15;18.92;75.48
68912;SHT31;55953;51.650;-0.522;2022-08-01T02:46:52;18.83;75.62
68912;SHT31;55953;51.650;-0.522;2022-08-01T02:49:24;18.81;75.69
68912;SHT31;55953;51.650;-0.522;2022-08-01T02:51:55;18.78;75.71
68912;SHT31;55953;51.650;-0.522;2022-08-01T02:54:25;18.76;75.71
68912;SHT31;55953;51.650;-0.522;2022-08-01T02:56:55;18.71;75.78
68912;SHT31;55953;51.650;-0.522;2022-08-01T02:59:24;18.68;75.88
68912;SHT31;55953;51.650;-0.522;2022-08-01T03:01:56;18.60;76.00
68912;SHT31;55953;51.650;-0.522;2022-08-01T03:04:29;18.55;76.10
68912;SHT31;55953;51.650;-0.522;2022-08-01T03:07:02;18.49;76.20
68912;SHT31;55953;51.650;-0.522;2022-08-01T03:09:34;18.45;76.24
68912;SHT31;55953;51.650;-0.522;2022-08-01T03:12:09;18.43;76.28
68912;SHT31;55953;51.650;-0.522;2022-08-01T03:14:47;18.43;76.30
68912;SHT31;55953;51.650;-0.522;2022-08-01T03:17:18;18.43;76.24
68912;SHT31;55953;51.650;-0.522;2022-08-01T03:19:51;18.47;76.22
68912;SHT31;55953;51.650;-0.522;2022-08-01T03:22:21;18.47;76.19
68912;SHT31;55953;51.650;-0.522;2022-08-01T03:24:53;18.48;76.13
68912;SHT31;55953;51.650;-0.522;2022-08-01T03:27:23;18.39;76.36
68912;SHT31;55953;51.650;-0.522;2022-08-01T03:29:54;18.39;76.43
68912;SHT31;55953;51.650;-0.522;2022-08-01T03:32:24;18.33;76.65
68912;SHT31;55953;51.650;-0.522;2022-08-01T03:34:54;18.32;76.63
68912;SHT31;55953;51.650;-0.522;2022-08-01T03:37:42;18.31;76.75
68912;SHT31;55953;51.650;-0.522;2022-08-01T03:43:38;18.29;76.78
68912;SHT31;55953;51.650;-0.522;2022-08-01T03:46:15;18.27;76.82
68912;SHT31;55953;51.650;-0.522;2022-08-01T03:48:54;18.23;76.95
68912;SHT31;55953;51.650;-0.522;2022-08-01T03:51:26;18.23;76.96
68912;SHT31;55953;51.650;-0.522;2022-08-01T03:53:56;18.26;76.91
68912;SHT31;55953;51.650;-0.522;2022-08-01T03:56:28;18.28;76.84
68912;SHT31;55953;51.650;-0.522;2022-08-01T03:58:59;18.31;76.84
68912;SHT31;55953;51.650;-0.522;2022-08-01T04:01:30;18.35;76.64
68912;SHT31;55953;51.650;-0.522;2022-08-01T04:04:00;18.34;76.66
68912;SHT31;55953;51.650;-0.522;2022-08-01T04:06:28;18.36;76.59
68912;SHT31;55953;51.650;-0.522;2022-08-01T04:08:59;18.38;76.62
68912;SHT31;55953;51.650;-0.522;2022-08-01T04:11:27;18.30;76.76
68912;SHT31;55953;51.650;-0.522;2022-08-01T04:13:55;18.30;76.73
68912;SHT31;55953;51.650;-0.522;2022-08-01T04:16:24;18.31;76.69
68912;SHT31;55953;51.650;-0.522;2022-08-01T04:18:53;18.33;76.65
68912;SHT31;55953;51.650;-0.522;2022-08-01T04:21:22;18.35;76.62
68912;SHT31;55953;51.650;-0.522;2022-08-01T04:23:58;18.31;76.74
68912;SHT31;55953;51.650;-0.522;2022-08-01T04:26:32;18.24;76.98
68912;SHT31;55953;51.650;-0.522;2022-08-01T04:29:04;18.18;77.05
68912;SHT31;55953;51.650;-0.522;2022-08-01T04:31:35;18.14;77.17
68912;SHT31;55953;51.650;-0.522;2022-08-01T04:34:06;18.18;77.04
68912;SHT31;55953;51.650;-0.522;2022-08-01T04:36:37;18.25;76.95
68912;SHT31;55953;51.650;-0.522;2022-08-01T04:39:09;18.27;76.92
68912;SHT31;55953;51.650;-0.522;2022-08-01T04:41:39;18.26;76.91
68912;SHT31;55953;51.650;-0.522;2022-08-01T04:44:08;18.22;77.04
68912;SHT31;55953;51.650;-0.522;2022-08-01T04:46:35;18.20;77.19
68912;SHT31;55953;51.650;-0.522;2022-08-01T04:49:07;18.18;77.17
68912;SHT31;55953;51.650;-0.522;2022-08-01T04:51:51;18.17;77.13
68912;SHT31;55953;51.650;-0.522;2022-08-01T04:54:30;18.24;77.10
68912;SHT31;55953;51.650;-0.522;2022-08-01T04:57:04;18.31;76.89
68912;SHT31;55953;51.650;-0.522;2022-08-01T04:59:33;18.38;76.72
68912;SHT31;55953;51.650;-0.522;2022-08-01T05:02:17;18.40;76.74
68912;SHT31;55953;51.650;-0.522;2022-08-01T05:04:46;18.36;76.84
68912;SHT31;55953;51.650;-0.522;2022-08-01T05:07:14;18.34;77.00
68912;SHT31;55953;51.650;-0.522;2022-08-01T05:09:43;18.29;77.09
68912;SHT31;55953;51.650;-0.522;2022-08-01T05:12:13;18.30;77.12
68912;SHT31;55953;51.650;-0.522;2022-08-01T05:14:41;18.38;76.93
68912;SHT31;55953;51.650;-0.522;2022-08-01T05:17:09;18.40;76.80
68912;SHT31;55953;51.650;-0.522;2022-08-01T05:19:38;18.35;76.94
68912;SHT31;55953;51.650;-0.522;2022-08-01T05:22:08;18.39;76.97
68912;SHT31;55953;51.650;-0.522;2022-08-01T05:24:37;18.48;76.76
68912;SHT31;55953;51.650;-0.522;2022-08-01T05:27:07;18.59;76.52
68912;SHT31;55953;51.650;-0.522;2022-08-01T05:29:39;18.58;76.54
68912;SHT31;55953;51.650;-0.522;2022-08-01T05:32:11;18.49;76.70
68912;SHT31;55953;51.650;-0.522;2022-08-01T05:34:39;18.54;76.65
68912;SHT31;55953;51.650;-0.522;2022-08-01T05:37:07;18.58;76.59
68912;SHT31;55953;51.650;-0.522;2022-08-01T05:39:35;18.69;76.49
68912;SHT31;55953;51.650;-0.522;2022-08-01T05:42:03;18.77;76.31
68912;SHT31;55953;51.650;-0.522;2022-08-01T05:44:31;18.95;76.05
68912;SHT31;55953;51.650;-0.522;2022-08-01T05:46:59;19.06;75.80
68912;SHT31;55953;51.650;-0.522;2022-08-01T05:49:27;19.14;75.77
68912;SHT31;55953;51.650;-0.522;2022-08-01T05:51:55;19.28;75.42
68912;SHT31;55953;51.650;-0.522;2022-08-01T05:54:23;19.41;74.84
68912;SHT31;55953;51.650;-0.522;2022-08-01T05:56:51;19.45;74.90
68912;SHT31;55953;51.650;-0.522;2022-08-01T05:59:18;19.53;74.70
68912;SHT31;55953;51.650;-0.522;2022-08-01T06:01:48;19.63;74.25
68912;SHT31;55953;51.650;-0.522;2022-08-01T06:04:16;19.72;74.04
68912;SHT31;55953;51.650;-0.522;2022-08-01T06:06:44;19.81;73.66
68912;SHT31;55953;51.650;-0.522;2022-08-01T06:09:11;19.87;73.50
68912;SHT31;55953;51.650;-0.522;2022-08-01T06:11:39;19.80;73.21
68912;SHT31;55953;51.650;-0.522;2022-08-01T06:14:07;19.70;73.44
68912;SHT31;55953;51.650;-0.522;2022-08-01T06:16:35;19.67;73.52
68912;SHT31;55953;51.650;-0.522;2022-08-01T06:19:03;19.59;73.66
68912;SHT31;55953;51.650;-0.522;2022-08-01T06:21:30;19.58;73.71
68912;SHT31;55953;51.650;-0.522;2022-08-01T06:23:58;19.52;73.72
68912;SHT31;55953;51.650;-0.522;2022-08-01T06:26:26;19.45;73.81
68912;SHT31;55953;51.650;-0.522;2022-08-01T06:28:54;19.36;73.95
68912;SHT31;55953;51.650;-0.522;2022-08-01T06:31:21;19.36;74.25
68912;SHT31;55953;51.650;-0.522;2022-08-01T06:33:49;19.42;74.32
68912;SHT31;55953;51.650;-0.522;2022-08-01T06:36:17;19.50;74.02
68912;SHT31;55953;51.650;-0.522;2022-08-01T06:38:45;19.57;73.98
68912;SHT31;55953;51.650;-0.522;2022-08-01T06:41:13;19.63;73.78
68912;SHT31;55953;51.650;-0.522;2022-08-01T06:43:40;19.68;73.80
68912;SHT31;55953;51.650;-0.522;2022-08-01T06:46:08;19.68;73.58
68912;SHT31;55953;51.650;-0.522;2022-08-01T06:48:36;19.67;73.67
68912;SHT31;55953;51.650;-0.522;2022-08-01T06:51:06;19.67;73.69
68912;SHT31;55953;51.650;-0.522;2022-08-01T06:53:40;19.72;73.65
68912;SHT31;55953;51.650;-0.522;2022-08-01T06:56:10;19.76;73.34
68912;SHT31;55953;51.650;-0.522;2022-08-01T06:58:39;19.81;73.22
68912;SHT31;55953;51.650;-0.522;2022-08-01T07:01:06;19.87;73.05
68912;SHT31;55953;51.650;-0.522;2022-08-01T07:03:35;19.93;72.86
68912;SHT31;55953;51.650;-0.522;2022-08-01T07:06:21;20.03;72.74
68912;SHT31;55953;51.650;-0.522;2022-08-01T07:08:51;20.12;72.72
68912;SHT31;55953;51.650;-0.522;2022-08-01T07:11:20;20.27;72.43
68912;SHT31;55953;51.650;-0.522;2022-08-01T07:13:51;20.43;71.90
68912;SHT31;55953;51.650;-0.522;2022-08-01T07:16:18;20.56;71.78
68912;SHT31;55953;51.650;-0.522;2022-08-01T07:18:46;20.72;71.34
68912;SHT31;55953;51.650;-0.522;2022-08-01T07:21:14;20.81;70.83
68912;SHT31;55953;51.650;-0.522;2022-08-01T07:24:02;20.89;70.44
68912;SHT31;55953;51.650;-0.522;2022-08-01T07:26:41;20.92;70.14
68912;SHT31;55953;51.650;-0.522;2022-08-01T07:29:21;20.95;70.12
68912;SHT31;55953;51.650;-0.522;2022-08-01T07:31:51;21.06;70.23
68912;SHT31;55953;51.650;-0.522;2022-08-01T07:34:21;21.14;69.60
68912;SHT31;55953;51.650;-0.522;2022-08-01T07:36:50;21.20;69.46
68912;SHT31;55953;51.650;-0.522;2022-08-01T07:39:19;21.28;69.50
68912;SHT31;55953;51.650;-0.522;2022-08-01T07:41:48;21.44;69.09
68912;SHT31;55953;51.650;-0.522;2022-08-01T07:44:34;21.61;68.43
68912;SHT31;55953;51.650;-0.522;2022-08-01T07:47:04;21.57;67.32
68912;SHT31;55953;51.650;-0.522;2022-08-01T07:49:32;21.50;67.72
68912;SHT31;55953;51.650;-0.522;2022-08-01T07:52:06;21.56;67.55
68912;SHT31;55953;51.650;-0.522;2022-08-01T07:54:35;21.69;67.43
68912;SHT31;55953;51.650;-0.522;2022-08-01T07:57:03;21.91;67.27
68912;SHT31;55953;51.650;-0.522;2022-08-01T07:59:32;21.99;66.92
68912;SHT31;55953;51.650;-0.522;2022-08-01T08:02:00;22.23;66.74
68912;SHT31;55953;51.650;-0.522;2022-08-01T08:04:28;22.40;66.11
68912;SHT31;55953;51.650;-0.522;2022-08-01T08:06:56;22.43;65.39
68912;SHT31;55953;51.650;-0.522;2022-08-01T08:09:24;22.37;65.10
68912;SHT31;55953;51.650;-0.522;2022-08-01T08:11:53;22.30;65.15
68912;SHT31;55953;51.650;-0.522;2022-08-01T08:14:21;22.33;65.32
68912;SHT31;55953;51.650;-0.522;2022-08-01T08:16:59;22.55;65.32
68912;SHT31;55953;51.650;-0.522;2022-08-01T08:19:28;22.71;64.98
68912;SHT31;55953;51.650;-0.522;2022-08-01T08:22:05;22.77;64.58
68912;SHT31;55953;51.650;-0.522;2022-08-01T08:24:37;22.81;64.60
68912;SHT31;55953;51.650;-0.522;2022-08-01T08:27:13;22.78;64.21
68912;SHT31;55953;51.650;-0.522;2022-08-01T08:29:42;22.69;64.09
68912;SHT31;55953;51.650;-0.522;2022-08-01T08:32:11;22.69;64.25
68912;SHT31;55953;51.650;-0.522;2022-08-01T08:34:39;22.71;64.18
68912;SHT31;55953;51.650;-0.522;2022-08-01T08:37:07;22.72;63.86
68912;SHT31;55953;51.650;-0.522;2022-08-01T08:39:35;22.79;63.97
68912;SHT31;55953;51.650;-0.522;2022-08-01T08:42:09;22.85;63.69
68912;SHT31;55953;51.650;-0.522;2022-08-01T08:44:41;22.89;63.75
68912;SHT31;55953;51.650;-0.522;2022-08-01T08:47:12;22.96;63.62
68912;SHT31;55953;51.650;-0.522;2022-08-01T08:49:47;23.12;63.36
68912;SHT31;55953;51.650;-0.522;2022-08-01T08:52:19;23.13;62.72
68912;SHT31;55953;51.650;-0.522;2022-08-01T08:54:49;23.04;62.49
68912;SHT31;55953;51.650;-0.522;2022-08-01T08:57:19;22.90;62.83
68912;SHT31;55953;51.650;-0.522;2022-08-01T08:59:48;22.89;63.17
68912;SHT31;55953;51.650;-0.522;2022-08-01T09:02:19;22.95;63.38
68912;SHT31;55953;51.650;-0.522;2022-08-01T09:04:48;23.10;62.91
68912;SHT31;55953;51.650;-0.522;2022-08-01T09:07:17;23.21;62.81
68912;SHT31;55953;51.650;-0.522;2022-08-01T09:09:45;23.21;61.80
68912;SHT31;55953;51.650;-0.522;2022-08-01T09:12:16;23.16;62.25
68912;SHT31;55953;51.650;-0.522;2022-08-01T09:14:46;23.14;61.57
68912;SHT31;55953;51.650;-0.522;2022-08-01T09:17:17;23.13;61.80
68912;SHT31;55953;51.650;-0.522;2022-08-01T09:19:45;23.17;61.79
68912;SHT31;55953;51.650;-0.522;2022-08-01T09:22:21;23.25;61.79
68912;SHT31;55953;51.650;-0.522;2022-08-01T09:24:58;23.29;61.14
68912;SHT31;55953;51.650;-0.522;2022-08-01T09:27:27;23.24;61.67
68912;SHT31;55953;51.650;-0.522;2022-08-01T09:30:07;23.16;61.23
68912;SHT31;55953;51.650;-0.522;2022-08-01T09:32:53;23.18;61.76
68912;SHT31;55953;51.650;-0.522;2022-08-01T09:35:30;23.24;61.67
68912;SHT31;55953;51.650;-0.522;2022-08-01T09:38:13;23.33;61.45
68912;SHT31;55953;51.650;-0.522;2022-08-01T09:43:16;23.29;60.86
68912;SHT31;55953;51.650;-0.522;2022-08-01T09:45:47;23.27;61.02
68912;SHT31;55953;51.650;-0.522;2022-08-01T09:48:19;23.24;60.43
68912;SHT31;55953;51.650;-0.522;2022-08-01T09:50:56;23.04;60.75
68912;SHT31;55953;51.650;-0.522;2022-08-01T09:54:07;23.11;61.00
68912;SHT31;55953;51.650;-0.522;2022-08-01T09:56:42;23.27;60.60
68912;SHT31;55953;51.650;-0.522;2022-08-01T09:59:10;23.35;60.13
68912;SHT31;55953;51.650;-0.522;2022-08-01T10:01:46;23.33;60.25
68912;SHT31;55953;51.650;-0.522;2022-08-01T10:04:18;23.42;60.69
68912;SHT31;55953;51.650;-0.522;2022-08-01T10:06:49;23.58;60.33
68912;SHT31;55953;51.650;-0.522;2022-08-01T10:09:30;23.60;59.68
68912;SHT31;55953;51.650;-0.522;2022-08-01T10:12:08;23.66;60.13
68912;SHT31;55953;51.650;-0.522;2022-08-01T10:14:43;23.93;60.16
68912;SHT31;55953;51.650;-0.522;2022-08-01T10:17:17;24.21;59.19
68912;SHT31;55953;51.650;-0.522;2022-08-01T10:19:49;24.32;59.19
68912;SHT31;55953;51.650;-0.522;2022-08-01T10:22:21;24.40;58.94
68912;SHT31;55953;51.650;-0.522;2022-08-01T10:24:53;24.49;59.16
68912;SHT31;55953;51.650;-0.522;2022-08-01T10:27:24;24.60;58.62
68912;SHT31;55953;51.650;-0.522;2022-08-01T10:30:05;24.65;57.75
68912;SHT31;55953;51.650;-0.522;2022-08-01T10:32:50;24.50;57.88
68912;SHT31;55953;51.650;-0.522;2022-08-01T10:35:21;24.53;57.97
68912;SHT31;55953;51.650;-0.522;2022-08-01T10:38:09;24.55;57.53
68912;SHT31;55953;51.650;-0.522;2022-08-01T10:40:41;24.63;57.57
68912;SHT31;55953;51.650;-0.522;2022-08-01T10:43:10;24.76;57.38
68912;SHT31;55953;51.650;-0.522;2022-08-01T10:45:39;24.76;57.21
68912;SHT31;55953;51.650;-0.522;2022-08-01T10:51:12;24.93;56.71
68912;SHT31;55953;51.650;-0.522;2022-08-01T10:53:51;25.01;56.68
68912;SHT31;55953;51.650;-0.522;2022-08-01T10:56:23;25.02;55.93
68912;SHT31;55953;51.650;-0.522;2022-08-01T10:59:03;25.01;56.20
68912;SHT31;55953;51.650;-0.522;2022-08-01T11:01:38;25.16;56.92
68912;SHT31;55953;51.650;-0.522;2022-08-01T11:04:12;25.34;56.32
68912;SHT31;55953;51.650;-0.522;2022-08-01T11:06:50;25.51;55.68
68912;SHT31;55953;51.650;-0.522;2022-08-01T11:09:49;25.75;55.14
68912;SHT31;55953;51.650;-0.522;2022-08-01T11:12:50;25.99;54.19
68912;SHT31;55953;51.650;-0.522;2022-08-01T11:15:19;25.92;53.58
68912;SHT31;55953;51.650;-0.522;2022-08-01T11:17:57;25.77;53.47
68912;SHT31;55953;51.650;-0.522;2022-08-01T11:20:32;26.01;54.28
68912;SHT31;55953;51.650;-0.522;2022-08-01T11:23:15;26.49;53.32
68912;SHT31;55953;51.650;-0.522;2022-08-01T11:28:33;26.49;53.12
68912;SHT31;55953;51.650;-0.522;2022-08-01T11:38:45;26.45;52.91
68912;SHT31;55953;51.650;-0.522;2022-08-01T11:41:27;26.42;53.30
68912;SHT31;55953;51.650;-0.522;2022-08-01T11:44:06;26.37;53.19
68912;SHT31;55953;51.650;-0.522;2022-08-01T11:46:44;26.41;53.17
68912;SHT31;55953;51.650;-0.522;2022-08-01T11:57:26;26.39;53.42
68912;SHT31;55953;51.650;-0.522;2022-08-01T12:00:04;26.64;52.51
68912;SHT31;55953;51.650;-0.522;2022-08-01T12:02:46;27.02;51.34
68912;SHT31;55953;51.650;-0.522;2022-08-01T12:05:25;27.37;51.32
68912;SHT31;55953;51.650;-0.522;2022-08-01T12:07:57;27.62;49.95
68912;SHT31;55953;51.650;-0.522;2022-08-01T12:10:26;27.55;49.12
68912;SHT31;55953;51.650;-0.522;2022-08-01T12:13:14;27.54;49.77
68912;SHT31;55953;51.650;-0.522;2022-08-01T12:15:43;27.52;49.46
68912;SHT31;55953;51.650;-0.522;2022-08-01T12:18:12;27.35;49.80
68912;SHT31;55953;51.650;-0.522;2022-08-01T12:20:41;27.17;50.16
68912;SHT31;55953;51.650;-0.522;2022-08-01T12:23:23;26.95;49.53
68912;SHT31;55953;51.650;-0.522;2022-08-01T12:25:51;26.87;49.48
68912;SHT31;55953;51.650;-0.522;2022-08-01T12:28:20;26.98;49.42
68912;SHT31;55953;51.650;-0.522;2022-08-01T12:30:50;27.25;49.46
68912;SHT31;55953;51.650;-0.522;2022-08-01T12:33:18;27.28;49.25
68912;SHT31;55953;51.650;-0.522;2022-08-01T12:35:48;27.06;48.61
68912;SHT31;55953;51.650;-0.522;2022-08-01T12:40:52;26.83;49.82
68912;SHT31;55953;51.650;-0.522;2022-08-01T12:43:21;26.94;49.76
68912;SHT31;55953;51.650;-0.522;2022-08-01T12:45:56;26.87;49.98
68912;SHT31;55953;51.650;-0.522;2022-08-01T12:48:27;26.83;50.29
68912;SHT31;55953;51.650;-0.522;2022-08-01T12:50:58;26.82;50.39
68912;SHT31;55953;51.650;-0.522;2022-08-01T12:53:28;26.94;49.86
68912;SHT31;55953;51.650;-0.522;2022-08-01T12:56:08;26.93;49.86
68912;SHT31;55953;51.650;-0.522;2022-08-01T12:58:40;26.89;50.22
68912;SHT31;55953;51.650;-0.522;2022-08-01T13:01:08;26.84;50.27
68912;SHT31;55953;51.650;-0.522;2022-08-01T13:03:39;26.79;50.31
68912;SHT31;55953;51.650;-0.522;2022-08-01T13:06:12;26.87;49.02
68912;SHT31;55953;51.650;-0.522;2022-08-01T13:08:43;26.92;48.83
68912;SHT31;55953;51.650;-0.522;2022-08-01T13:11:13;26.95;48.61
68912;SHT31;55953;51.650;-0.522;2022-08-01T13:13:44;27.05;49.12
68912;SHT31;55953;51.650;-0.522;2022-08-01T13:16:21;27.38;48.00
68912;SHT31;55953;51.650;-0.522;2022-08-01T13:19:12;27.69;47.79
68912;SHT31;55953;51.650;-0.522;2022-08-01T13:21:52;27.94;46.81
68912;SHT31;55953;51.650;-0.522;2022-08-01T13:24:26;28.09;46.07
68912;SHT31;55953;51.650;-0.522;2022-08-01T13:26:59;28.32;46.58
68912;SHT31;55953;51.650;-0.522;2022-08-01T13:29:35;28.59;45.91
68912;SHT31;55953;51.650;-0.522;2022-08-01T13:35:05;29.17;44.63
68912;SHT31;55953;51.650;-0.522;2022-08-01T13:37:36;29.39;44.40
68912;SHT31;55953;51.650;-0.522;2022-08-01T13:40:06;29.50;44.29
68912;SHT31;55953;51.650;-0.522;2022-08-01T13:42:36;29.59;44.09
68912;SHT31;55953;51.650;-0.522;2022-08-01T13:45:05;29.56;43.92
68912;SHT31;55953;51.650;-0.522;2022-08-01T13:47:41;29.56;43.46
68912;SHT31;55953;51.650;-0.522;2022-08-01T13:50:31;29.55;43.43
68912;SHT31;55953;51.650;-0.522;2022-08-01T13:52:59;29.39;43.85
68912;SHT31;55953;51.650;-0.522;2022-08-01T13:55:27;29.13;44.11
68912;SHT31;55953;51.650;-0.522;2022-08-01T13:58:01;28.97;44.08
68912;SHT31;55953;51.650;-0.522;2022-08-01T14:00:30;28.75;44.08
68912;SHT31;55953;51.650;-0.522;2022-08-01T14:02:58;28.63;44.66
68912;SHT31;55953;51.650;-0.522;2022-08-01T14:05:26;28.78;44.92
68912;SHT31;55953;51.650;-0.522;2022-08-01T14:07:54;28.98;44.12
68912;SHT31;55953;51.650;-0.522;2022-08-01T14:10:23;28.96;44.09
68912;SHT31;55953;51.650;-0.522;2022-08-01T14:12:51;28.94;43.97
68912;SHT31;55953;51.650;-0.522;2022-08-01T14:15:23;29.05;43.38
68912;SHT31;55953;51.650;-0.522;2022-08-01T14:18:07;29.13;43.47
68912;SHT31;55953;51.650;-0.522;2022-08-01T14:20:37;29.19;43.79
68912;SHT31;55953;51.650;-0.522;2022-08-01T14:23:06;29.17;41.55
68912;SHT31;55953;51.650;-0.522;2022-08-01T14:25:39;29.15;41.33
68912;SHT31;55953;51.650;-0.522;2022-08-01T14:28:28;29.33;40.75
68912;SHT31;55953;51.650;-0.522;2022-08-01T14:30:57;29.43;40.46
68912;SHT31;55953;51.650;-0.522;2022-08-01T14:33:26;29.48;40.74
68912;SHT31;55953;51.650;-0.522;2022-08-01T14:35:54;29.38;40.20
68912;SHT31;55953;51.650;-0.522;2022-08-01T14:38:43;29.30;41.06
68912;SHT31;55953;51.650;-0.522;2022-08-01T14:41:15;29.25;40.60
68912;SHT31;55953;51.650;-0.522;2022-08-01T14:43:43;29.17;41.07
68912;SHT31;55953;51.650;-0.522;2022-08-01T14:46:11;29.20;40.63
68912;SHT31;55953;51.650;-0.522;2022-08-01T14:48:40;29.01;41.05
68912;SHT31;55953;51.650;-0.522;2022-08-01T14:51:08;28.82;40.96
68912;SHT31;55953;51.650;-0.522;2022-08-01T14:53:36;28.63;41.61
68912;SHT31;55953;51.650;-0.522;2022-08-01T14:56:05;28.63;42.16
68912;SHT31;55953;51.650;-0.522;2022-08-01T14:58:33;28.69;42.13
68912;SHT31;55953;51.650;-0.522;2022-08-01T15:01:02;28.79;41.66
68912;SHT31;55953;51.650;-0.522;2022-08-01T15:03:31;28.92;41.67
68912;SHT31;55953;51.650;-0.522;2022-08-01T15:05:59;29.04;41.61
68912;SHT31;55953;51.650;-0.522;2022-08-01T15:08:27;29.16;41.17
68912;SHT31;55953;51.650;-0.522;2022-08-01T15:10:57;29.28;40.10
68912;SHT31;55953;51.650;-0.522;2022-08-01T15:13:24;29.30;40.28
68912;SHT31;55953;51.650;-0.522;2022-08-01T15:15:52;29.19;39.91
68912;SHT31;55953;51.650;-0.522;2022-08-01T15:18:26;29.09;39.85
68912;SHT31;55953;51.650;-0.522;2022-08-01T15:20:55;28.95;40.37
68912;SHT31;55953;51.650;-0.522;2022-08-01T15:23:24;28.93;40.92
68912;SHT31;55953;51.650;-0.522;2022-08-01T15:25:52;29.12;40.36
68912;SHT31;55953;51.650;-0.522;2022-08-01T15:28:20;29.24;40.06
68912;SHT31;55953;51.650;-0.522;2022-08-01T15:30:48;29.27;40.31
68912;SHT31;55953;51.650;-0.522;2022-08-01T15:33:15;29.21;40.60
68912;SHT31;55953;51.650;-0.522;2022-08-01T15:35:44;29.17;39.87
68912;SHT31;55953;51.650;-0.522;2022-08-01T15:38:11;29.20;40.09
68912;SHT31;55953;51.650;-0.522;2022-08-01T15:40:39;29.22;39.71
68912;SHT31;55953;51.650;-0.522;2022-08-01T15:43:07;29.21;39.53
68912;SHT31;55953;51.650;-0.522;2022-08-01T15:45:41;28.99;39.88
68912;SHT31;55953;51.650;-0.522;2022-08-01T15:48:17;28.67;40.20
68912;SHT31;55953;51.650;-0.522;2022-08-01T15:50:45;28.70;40.75
68912;SHT31;55953;51.650;-0.522;2022-08-01T15:53:15;28.83;40.43
68912;SHT31;55953;51.650;-0.522;2022-08-01T15:55:43;28.88;40.35
68912;SHT31;55953;51.650;-0.522;2022-08-01T15:58:19;28.93;39.93
68912;SHT31;55953;51.650;-0.522;2022-08-01T16:00:47;28.97;39.16
68912;SHT31;55953;51.650;-0.522;2022-08-01T16:03:15;28.95;38.86
68912;SHT31;55953;51.650;-0.522;2022-08-01T16:05:43;29.03;39.16
68912;SHT31;55953;51.650;-0.522;2022-08-01T16:08:11;29.15;39.26
68912;SHT31;55953;51.650;-0.522;2022-08-01T16:10:40;29.05;39.02
68912;SHT31;55953;51.650;-0.522;2022-08-01T16:13:09;28.81;38.72
68912;SHT31;55953;51.650;-0.522;2022-08-01T16:15:37;28.64;39.33
68912;SHT31;55953;51.650;-0.522;2022-08-01T16:18:06;28.58;39.60
68912;SHT31;55953;51.650;-0.522;2022-08-01T16:20:36;28.59;39.77
68912;SHT31;55953;51.650;-0.522;2022-08-01T16:23:11;28.56;39.37
68912;SHT31;55953;51.650;-0.522;2022-08-01T16:25:40;28.46;40.02
68912;SHT31;55953;51.650;-0.522;2022-08-01T16:28:11;28.50;40.10
68912;SHT31;55953;51.650;-0.522;2022-08-01T16:30:40;28.50;40.26